Time;durP1;ratioP1;P1;durP2;ratioP2;P2;SDS_P1;SDS_P2;PMS_P1;PMS_P2;Temp;Humidity;BMP_temperature;BMP_pressure;BME280_temperature;BME280_humidity;BME280_pressure;Samples;Min_cycle;Max_cycle;Signal;HPM_P1;HPM_P2
2023/03/13 00:01:23;;;;;;;;;;;;;;;11.77;100.00;99271.69;4992458;28;20626;-40
2023/03/13 00:03:49;;;;;;;;;;;;;;;12.23;100.00;99334.75;4990876;28;19932;-40
2023/03/13 00:06:14;;;;;;;;;;;;;;;12.21;100.00;99328.78;4990433;28;20933;-40
2023/03/13 00:08:39;;;;;;;;;;;;;;;12.27;100.00;99326.00;4988942;28;19921;-40
2023/03/13 00:11:05;;;;;;;;;;;;;;;12.44;100.00;99304.78;4989941;28;20067;-40
2023/03/13 00:13:31;;;;;;;;;;;;;;;12.54;100.00;99264.78;4989814;28;19929;-40
2023/03/13 00:16:04;;;;;;;;;;;;;;;12.31;100.00;99247.53;4991155;28;19948;-40
2023/03/13 00:18:29;;;;;;;;;;;;;;;12.34;100.00;99237.94;4991013;28;19929;-40
2023/03/13 00:21:01;;;;;;;;;;;;;;;12.67;100.00;99245.38;4987891;28;19955;-40
2023/03/13 00:23:26;;;;;;;;;;;;;;;12.13;100.00;99202.53;4991791;28;19917;-40
2023/03/13 00:25:58;;;;;;;;;;;;;;;12.59;100.00;99249.97;4991905;28;19963;-40
2023/03/13 00:28:24;;;;;;;;;;;;;;;12.22;100.00;99248.69;4990578;28;19921;-40
2023/03/13 00:30:49;;;;;;;;;;;;;;;12.40;100.00;99283.34;4982045;28;20128;-40
2023/03/13 00:33:14;;;;;;;;;;;;;;;12.50;100.00;99305.41;4989782;28;19953;-40
2023/03/13 00:35:39;;;;;;;;;;;;;;;12.29;100.00;99280.31;4990134;28;20425;-40
2023/03/13 00:38:05;;;;;;;;;;;;;;;12.25;100.00;99299.41;4990693;28;21652;-40
2023/03/13 00:40:30;;;;;;;;;;;;;;;12.62;100.00;99311.88;4991621;28;20631;-40
2023/03/13 00:42:55;;;;;;;;;;;;;;;12.55;100.00;99319.00;4987960;28;20972;-40
2023/03/13 00:45:20;;;;;;;;;;;;;;;12.13;100.00;99304.09;4991270;28;20412;-40
2023/03/13 00:47:46;;;;;;;;;;;;;;;12.18;100.00;99329.75;4989694;28;19928;-41
2023/03/13 00:50:11;;;;;;;;;;;;;;;13.07;100.00;99356.78;4994518;28;19961;-40
2023/03/13 00:52:36;;;;;;;;;;;;;;;12.83;100.00;99261.16;4993869;28;19963;-40
2023/03/13 00:55:03;;;;;;;;;;;;;;;12.41;100.00;99212.75;4994856;28;19918;-40
2023/03/13 00:57:28;;;;;;;;;;;;;;;12.04;100.00;99232.13;4993805;28;20375;-40
2023/03/13 00:59:53;;;;;;;;;;;;;;;12.70;100.00;99285.75;4994671;28;19921;-40
2023/03/13 01:02:18;;;;;;;;;;;;;;;12.65;100.00;99272.16;4992379;28;20010;-40
2023/03/13 01:04:43;;;;;;;;;;;;;;;12.79;100.00;99276.81;4994342;28;20009;-41
2023/03/13 01:07:09;;;;;;;;;;;;;;;12.54;100.00;99250.16;4992607;28;19917;-40
2023/03/13 01:09:34;;;;;;;;;;;;;;;12.69;100.00;99263.41;4995274;28;20000;-40
2023/03/13 01:11:59;;;;;;;;;;;;;;;13.01;100.00;99284.63;4993022;28;20036;-40
2023/03/13 01:14:24;;;;;;;;;;;;;;;12.34;100.00;99224.19;4996069;28;19921;-40
2023/03/13 01:16:49;;;;;;;;;;;;;;;11.95;100.00;99235.00;4996077;28;19921;-40
2023/03/13 01:19:15;;;;;;;;;;;;;;;12.92;100.00;99312.50;4993633;28;20052;-40
2023/03/13 01:21:41;;;;;;;;;;;;;;;12.94;100.00;99253.84;4992015;28;20975;-40
2023/03/13 01:24:06;;;;;;;;;;;;;;;12.54;100.00;99234.66;4992862;28;19922;-40
2023/03/13 01:26:31;;;;;;;;;;;;;;;12.76;100.00;99270.03;4993913;28;19977;-40
2023/03/13 01:28:57;;;;;;;;;;;;;;;12.22;100.00;99264.16;4992914;28;19922;-40
2023/03/13 01:31:23;;;;;;;;;;;;;;;12.18;100.00;99315.97;4995022;28;19967;-40
2023/03/13 01:33:49;;;;;;;;;;;;;;;12.26;100.00;99383.72;4993540;28;20002;-40
2023/03/13 01:36:15;;;;;;;;;;;;;;;12.55;100.00;99409.41;4995214;28;20031;-40
2023/03/13 01:38:40;;;;;;;;;;;;;;;12.35;100.00;99437.63;4993601;28;21009;-40
2023/03/13 01:41:06;;;;;;;;;;;;;;;12.53;100.00;99470.63;4993403;28;19929;-40
2023/03/13 01:43:33;;;;;;;;;;;;;;;12.35;100.00;99455.72;4991765;28;19922;-40
2023/03/13 01:45:58;;;;;;;;;;;;;;;12.81;100.00;99502.47;4993310;28;19914;-40
2023/03/13 01:48:34;;;;;;;;;;;;;;;12.72;100.00;99496.69;4994204;28;19927;-40
2023/03/13 01:51:00;;;;;;;;;;;;;;;12.40;100.00;99450.41;4993445;28;19917;-40
2023/03/13 01:53:25;;;;;;;;;;;;;;;12.73;100.00;99461.38;4975955;28;21112;-40
2023/03/13 01:55:51;;;;;;;;;;;;;;;12.60;100.00;99442.84;4992358;28;19921;-40
2023/03/13 01:58:16;;;;;;;;;;;;;;;12.33;100.00;99431.69;5009091;28;22052;-40
2023/03/13 02:00:41;;;;;;;;;;;;;;;12.90;100.00;99430.63;4993338;28;19925;-40
2023/03/13 02:03:08;;;;;;;;;;;;;;;12.43;100.00;99373.66;4991882;28;19925;-40
2023/03/13 02:05:33;;;;;;;;;;;;;;;12.54;100.00;99389.66;4991940;28;19922;-40
2023/03/13 02:08:00;;;;;;;;;;;;;;;12.51;100.00;99407.81;4993592;28;19921;-40
2023/03/13 02:10:25;;;;;;;;;;;;;;;13.05;100.00;99400.81;4993709;28;20430;-40
2023/03/13 02:12:51;;;;;;;;;;;;;;;13.07;100.00;99377.47;4992297;28;19957;-40
2023/03/13 02:15:17;;;;;;;;;;;;;;;13.19;100.00;99352.00;4994163;28;19917;-41
2023/03/13 02:17:42;;;;;;;;;;;;;;;12.46;100.00;99287.47;4993660;28;19929;-40
2023/03/13 02:20:08;;;;;;;;;;;;;;;12.40;100.00;99323.84;4990221;28;21713;-40
2023/03/13 02:22:48;;;;;;;;;;;;;;;13.21;100.00;99359.72;4993160;28;19921;-40
2023/03/13 02:25:23;;;;;;;;;;;;;;;12.82;100.00;99300.81;4993730;28;19925;-40
2023/03/13 02:27:51;;;;;;;;;;;;;;;12.47;100.00;99263.31;4994353;28;19925;-40
2023/03/13 02:30:17;;;;;;;;;;;;;;;12.21;100.00;99284.91;4992905;28;19917;-40
2023/03/13 02:32:42;;;;;;;;;;;;;;;12.88;100.00;99326.44;4991401;28;20655;-40
2023/03/13 02:35:09;;;;;;;;;;;;;;;12.54;100.00;99309.56;4992191;28;19928;-40
2023/03/13 02:37:35;;;;;;;;;;;;;;;12.73;100.00;99343.34;4991803;28;19936;-40
2023/03/13 02:40:03;;;;;;;;;;;;;;;13.06;100.00;99365.44;4991150;28;20000;-40
2023/03/13 02:42:28;;;;;;;;;;;;;;;12.76;100.00;99332.88;4993149;28;19956;-40
2023/03/13 02:44:53;;;;;;;;;;;;;;;12.27;100.00;99329.44;4988252;28;19936;-40
2023/03/13 02:47:22;;;;;;;;;;;;;;;12.84;100.00;99386.03;4990189;28;19929;-40
2023/03/13 02:49:49;;;;;;;;;;;;;;;12.31;100.00;99348.25;4990678;28;19917;-40
2023/03/13 02:52:36;;;;;;;;;;;;;;;12.69;100.00;99402.94;4989736;28;19952;-40
2023/03/13 02:55:04;;;;;;;;;;;;;;;12.50;100.00;99380.31;4988003;28;20009;-40
2023/03/13 02:57:30;;;;;;;;;;;;;;;12.95;100.00;99404.59;4988061;28;19941;-40
2023/03/13 02:59:55;;;;;;;;;;;;;;;12.64;100.00;99379.00;4991161;28;20016;-40
2023/03/13 03:02:21;;;;;;;;;;;;;;;12.04;100.00;99389.56;4990355;28;19925;-40
2023/03/13 03:04:46;;;;;;;;;;;;;;;12.68;100.00;99515.81;4989076;28;19956;-40
2023/03/13 03:07:11;;;;;;;;;;;;;;;12.28;100.00;99487.81;4990118;28;20105;-40
2023/03/13 03:09:37;;;;;;;;;;;;;;;12.66;100.00;99583.94;4989543;28;20099;-40
2023/03/13 03:12:02;;;;;;;;;;;;;;;12.75;100.00;99594.00;4987742;28;20073;-40
2023/03/13 03:14:27;;;;;;;;;;;;;;;12.51;100.00;99585.25;4989583;28;19932;-40
2023/03/13 03:16:52;;;;;;;;;;;;;;;12.24;100.00;99615.31;4988942;28;19925;-40
2023/03/13 03:19:18;;;;;;;;;;;;;;;12.10;100.00;99706.91;4986058;28;19928;-40
2023/03/13 03:21:43;;;;;;;;;;;;;;;12.27;100.00;99765.00;4988221;28;19917;-40
2023/03/13 03:24:08;;;;;;;;;;;;;;;12.54;100.00;99828.00;4990063;28;19929;-40
2023/03/13 03:26:33;;;;;;;;;;;;;;;12.59;100.00;99845.97;4989998;28;19922;-40
2023/03/13 03:28:59;;;;;;;;;;;;;;;12.29;100.00;99897.53;4989176;28;19921;-40
2023/03/13 03:31:24;;;;;;;;;;;;;;;12.03;100.00;99890.44;4988680;28;20276;-40
2023/03/13 03:33:49;;;;;;;;;;;;;;;12.26;100.00;99921.69;4989231;28;19922;-40
2023/03/13 03:36:18;;;;;;;;;;;;;;;12.06;100.00;99976.38;4988381;28;19932;-40
2023/03/13 03:38:44;;;;;;;;;;;;;;;12.64;100.00;100061.22;4989280;28;20377;-40
2023/03/13 03:41:10;;;;;;;;;;;;;;;12.28;100.00;100025.00;4990892;28;19980;-41
2023/03/13 03:43:35;;;;;;;;;;;;;;;12.29;100.00;100029.25;4985835;28;19928;-40
2023/03/13 03:46:00;;;;;;;;;;;;;;;12.75;100.00;100072.13;4988969;28;20284;-40
2023/03/13 03:48:25;;;;;;;;;;;;;;;12.62;100.00;100026.78;4987547;28;20175;-40
2023/03/13 03:50:51;;;;;;;;;;;;;;;12.39;100.00;100020.44;4988315;28;19928;-40
2023/03/13 03:53:16;;;;;;;;;;;;;;;12.78;100.00;100038.44;4989797;28;20425;-40
2023/03/13 03:55:41;;;;;;;;;;;;;;;12.82;100.00;100019.41;4990927;28;21204;-40
2023/03/13 03:58:06;;;;;;;;;;;;;;;12.86;100.00;99995.16;4989785;28;19922;-40
2023/03/13 04:00:32;;;;;;;;;;;;;;;12.91;100.00;99954.53;4989904;28;19921;-40
2023/03/13 04:02:57;;;;;;;;;;;;;;;12.72;100.00;99878.34;4991420;28;19979;-40
2023/03/13 04:05:23;;;;;;;;;;;;;;;11.87;100.00;99830.53;4990867;28;19921;-40
2023/03/13 04:07:48;;;;;;;;;;;;;;;12.66;100.00;99956.91;4990880;28;19924;-40
2023/03/13 04:10:13;;;;;;;;;;;;;;;13.08;100.00;99967.00;4991527;28;19994;-40
2023/03/13 04:12:39;;;;;;;;;;;;;;;12.96;100.00;99957.84;4992898;28;19921;-40
2023/03/13 04:15:05;;;;;;;;;;;;;;;12.96;100.00;99942.31;4989934;28;19917;-40
2023/03/13 04:17:30;;;;;;;;;;;;;;;12.35;100.00;99930.97;4991903;28;20010;-40
2023/03/13 04:19:55;;;;;;;;;;;;;;;12.78;100.00;99981.59;4989960;28;20004;-40
2023/03/13 04:22:20;;;;;;;;;;;;;;;12.33;100.00;99981.81;4990072;28;19921;-40
2023/03/13 04:24:46;;;;;;;;;;;;;;;12.80;100.00;100000.50;4989237;28;19921;-40
2023/03/13 04:27:11;;;;;;;;;;;;;;;12.90;100.00;100004.53;4989649;28;20302;-40
2023/03/13 04:29:36;;;;;;;;;;;;;;;12.68;100.00;99995.59;4988456;28;19921;-41
2023/03/13 04:32:01;;;;;;;;;;;;;;;12.43;100.00;100053.06;4990178;28;20264;-40
2023/03/13 04:34:27;;;;;;;;;;;;;;;12.85;100.00;100081.34;4989285;28;20015;-41
2023/03/13 04:36:52;;;;;;;;;;;;;;;13.05;100.00;100056.75;4988732;28;19921;-40
2023/03/13 04:39:17;;;;;;;;;;;;;;;12.97;100.00;100034.50;4987785;28;19922;-41
2023/03/13 04:41:42;;;;;;;;;;;;;;;13.30;100.00;100039.75;4987725;28;20588;-41
2023/03/13 04:44:08;;;;;;;;;;;;;;;12.88;100.00;99975.28;4985858;28;19939;-41
2023/03/13 04:46:33;;;;;;;;;;;;;;;13.08;100.00;99989.44;4989045;28;19917;-41
2023/03/13 04:48:58;;;;;;;;;;;;;;;12.69;100.00;99982.66;4988188;28;20070;-40
2023/03/13 04:51:23;;;;;;;;;;;;;;;12.69;100.00;99990.41;4987902;28;20029;-40
2023/03/13 04:53:48;;;;;;;;;;;;;;;13.44;100.00;99991.97;4988651;28;19920;-41
2023/03/13 04:56:19;;;;;;;;;;;;;;;13.06;100.00;99980.88;4988963;28;20465;-40
2023/03/13 04:58:44;;;;;;;;;;;;;;;13.32;100.00;99995.72;4988124;28;19951;-40
2023/03/13 05:01:09;;;;;;;;;;;;;;;12.32;100.00;99985.28;4988652;28;19929;-40
2023/03/13 05:03:34;;;;;;;;;;;;;;;13.30;100.00;100073.38;4988091;28;19925;-40
2023/03/13 05:06:00;;;;;;;;;;;;;;;13.16;100.00;100044.41;4989141;28;19989;-41
2023/03/13 05:08:25;;;;;;;;;;;;;;;13.02;100.00;100023.22;4989314;28;19918;-40
2023/03/13 05:10:50;;;;;;;;;;;;;;;12.48;100.00;100009.88;4988803;28;20458;-41
2023/03/13 05:13:16;;;;;;;;;;;;;;;13.28;100.00;100064.81;4988015;28;20028;-40
2023/03/13 05:15:41;;;;;;;;;;;;;;;13.18;100.00;100047.78;4986086;28;20016;-40
2023/03/13 05:18:06;;;;;;;;;;;;;;;12.91;100.00;100045.03;4988138;28;20072;-41
2023/03/13 05:20:31;;;;;;;;;;;;;;;13.25;100.00;100082.97;4985667;28;19925;-40
2023/03/13 05:22:56;;;;;;;;;;;;;;;13.24;100.00;100063.16;4987549;28;20031;-40
2023/03/13 05:25:22;;;;;;;;;;;;;;;13.03;100.00;100074.91;4990129;28;21349;-40
2023/03/13 05:27:47;;;;;;;;;;;;;;;12.70;100.00;100098.09;4987998;28;19922;-40
2023/03/13 05:30:12;;;;;;;;;;;;;;;13.43;98.11;100169.63;4988614;28;20024;-40
2023/03/13 05:32:37;;;;;;;;;;;;;;;13.31;97.24;100181.13;4986916;28;20508;-41
2023/03/13 05:35:03;;;;;;;;;;;;;;;12.98;95.55;100188.78;4987473;28;19971;-40
2023/03/13 05:37:28;;;;;;;;;;;;;;;12.90;94.18;100203.59;4992072;28;20244;-41
2023/03/13 05:39:53;;;;;;;;;;;;;;;13.37;91.47;100231.91;4991089;28;19930;-40
2023/03/13 05:42:18;;;;;;;;;;;;;;;13.06;96.72;100213.63;4997007;28;19926;-40
2023/03/13 05:44:43;;;;;;;;;;;;;;;13.59;95.86;100227.03;4990894;28;19921;-40
2023/03/13 05:47:09;;;;;;;;;;;;;;;13.52;95.39;100218.56;4991801;28;19917;-40
2023/03/13 05:49:34;;;;;;;;;;;;;;;13.14;96.01;100196.19;4991121;28;19924;-40
2023/03/13 05:51:59;;;;;;;;;;;;;;;13.55;88.54;100233.19;4989455;28;19926;-40
2023/03/13 05:54:25;;;;;;;;;;;;;;;13.05;88.53;100243.81;4990752;28;19935;-40
2023/03/13 05:56:50;;;;;;;;;;;;;;;13.15;89.09;100255.63;4988591;28;20068;-40
2023/03/13 05:59:16;;;;;;;;;;;;;;;13.76;86.85;100289.63;4992587;28;19925;-40
2023/03/13 06:01:41;;;;;;;;;;;;;;;13.57;90.71;100262.47;4991167;28;19921;-40
2023/03/13 06:04:06;;;;;;;;;;;;;;;12.93;97.45;100194.94;4991541;28;20634;-40
2023/03/13 06:06:31;;;;;;;;;;;;;;;13.88;88.87;100256.53;4991342;28;19925;-40
2023/03/13 06:08:57;;;;;;;;;;;;;;;13.68;93.34;100224.22;4992245;28;20012;-40
2023/03/13 06:11:22;;;;;;;;;;;;;;;14.12;92.21;100227.41;4991847;28;19925;-40
2023/03/13 06:13:47;;;;;;;;;;;;;;;13.78;95.11;100209.31;4991351;28;19928;-40
2023/03/13 06:16:12;;;;;;;;;;;;;;;13.44;93.91;100186.03;4990106;28;19918;-40
2023/03/13 06:18:37;;;;;;;;;;;;;;;13.87;92.28;100223.78;4990332;28;19917;-40
2023/03/13 06:21:03;;;;;;;;;;;;;;;13.45;99.21;100169.59;4991512;28;20386;-40
2023/03/13 06:23:28;;;;;;;;;;;;;;;13.79;96.62;100190.28;4989899;28;19917;-40
2023/03/13 06:25:53;;;;;;;;;;;;;;;13.31;90.71;100199.25;4989988;28;22038;-40
2023/03/13 06:28:19;;;;;;;;;;;;;;;13.76;85.25;100268.91;4990155;28;19925;-41
2023/03/13 06:30:44;;;;;;;;;;;;;;;14.05;86.95;100303.59;4992113;28;20107;-40
2023/03/13 06:33:09;;;;;;;;;;;;;;;13.84;89.14;100258.34;4990321;28;19928;-40
2023/03/13 06:35:34;;;;;;;;;;;;;;;13.58;89.91;100269.34;4990564;28;19922;-40
2023/03/13 06:37:59;;;;;;;;;;;;;;;13.98;85.81;100278.72;4988012;28;19921;-40
2023/03/13 06:40:25;;;;;;;;;;;;;;;13.64;87.39;100257.97;4989269;28;20467;-40
2023/03/13 06:42:50;;;;;;;;;;;;;;;13.80;86.24;100285.22;4988021;28;20704;-40
2023/03/13 06:45:15;;;;;;;;;;;;;;;13.92;82.90;100302.19;4990203;28;20408;-40
2023/03/13 06:47:40;;;;;;;;;;;;;;;13.93;82.78;100319.41;4989400;28;20267;-40
2023/03/13 06:50:06;;;;;;;;;;;;;;;13.70;81.73;100315.63;4989016;28;19968;-41
2023/03/13 06:52:31;;;;;;;;;;;;;;;14.50;82.01;100355.09;5003329;28;20075;-40
2023/03/13 06:54:56;;;;;;;;;;;;;;;14.29;81.38;100340.13;4991879;28;20211;-40
2023/03/13 06:57:22;;;;;;;;;;;;;;;14.12;80.68;100328.44;4990550;28;20405;-40
2023/03/13 06:59:47;;;;;;;;;;;;;;;13.69;85.77;100301.00;4990805;28;20429;-40
2023/03/13 07:02:12;;;;;;;;;;;;;;;13.74;87.21;100300.91;4987945;28;20464;-40
2023/03/13 07:04:37;;;;;;;;;;;;;;;14.19;85.20;100309.25;4990118;28;20012;-40
2023/03/13 07:07:03;;;;;;;;;;;;;;;14.16;85.52;100282.56;4990498;28;19913;-40
2023/03/13 07:09:28;;;;;;;;;;;;;;;14.05;85.54;100280.28;4989917;28;19976;-40
2023/03/13 07:11:53;;;;;;;;;;;;;;;14.26;84.47;100290.97;4988679;28;19936;-40
2023/03/13 07:14:19;;;;;;;;;;;;;;;14.58;87.09;100290.97;4990285;28;19928;-40
2023/03/13 07:16:44;;;;;;;;;;;;;;;14.19;90.95;100252.25;4986579;28;19917;-40
2023/03/13 07:19:10;;;;;;;;;;;;;;;14.62;93.87;100238.16;4989427;28;19922;-40
2023/03/13 07:21:35;;;;;;;;;;;;;;;14.20;98.27;100180.56;4987912;28;20436;-40
2023/03/13 07:24:00;;;;;;;;;;;;;;;14.27;92.53;100197.63;4998596;28;20671;-40
2023/03/13 07:26:25;;;;;;;;;;;;;;;14.09;96.79;100180.84;4994305;28;19929;-40
2023/03/13 07:28:51;;;;;;;;;;;;;;;13.99;93.58;100182.84;4991547;28;20008;-40
2023/03/13 07:31:17;;;;;;;;;;;;;;;14.67;91.06;100244.94;4989855;28;20003;-40
2023/03/13 07:33:43;;;;;;;;;;;;;;;15.01;91.94;100227.47;4990499;28;19997;-40
2023/03/13 07:36:09;;;;;;;;;;;;;;;14.42;93.59;100175.63;4989244;28;19937;-40
2023/03/13 07:38:34;;;;;;;;;;;;;;;14.73;97.51;100179.91;4988117;28;19940;-40
2023/03/13 07:41:00;;;;;;;;;;;;;;;14.19;97.53;100145.19;4989757;28;19925;-40
2023/03/13 07:43:25;;;;;;;;;;;;;;;14.80;95.61;100181.44;4988617;28;20067;-40
2023/03/13 07:45:51;;;;;;;;;;;;;;;14.78;100.00;100141.72;4990055;28;20374;-40
2023/03/13 07:48:16;;;;;;;;;;;;;;;14.95;100.00;100108.34;4991027;28;20528;-40
2023/03/13 07:50:41;;;;;;;;;;;;;;;15.72;100.00;100113.56;4989744;28;19917;-40
2023/03/13 07:53:07;;;;;;;;;;;;;;;15.05;100.00;100000.78;4988445;28;20378;-40
2023/03/13 07:55:32;;;;;;;;;;;;;;;14.45;100.00;99973.38;4989112;28;20880;-40
2023/03/13 07:57:58;;;;;;;;;;;;;;;14.69;100.00;99968.28;4990172;28;20078;-40
2023/03/13 08:00:23;;;;;;;;;;;;;;;14.66;100.00;99982.22;4987468;28;19928;-40
2023/03/13 08:02:48;;;;;;;;;;;;;;;14.48;100.00;99967.22;4988956;28;19921;-40
2023/03/13 08:05:13;;;;;;;;;;;;;;;15.23;100.00;100001.88;4989131;28;19948;-40
2023/03/13 08:07:38;;;;;;;;;;;;;;;14.96;100.00;99943.16;4990140;28;20024;-40
2023/03/13 08:10:04;;;;;;;;;;;;;;;15.48;100.00;99910.97;4989504;28;19965;-40
2023/03/13 08:12:29;;;;;;;;;;;;;;;14.98;100.00;99841.06;4988357;28;20012;-40
2023/03/13 08:14:55;;;;;;;;;;;;;;;15.61;100.00;99866.41;4990738;28;20429;-40
2023/03/13 08:17:21;;;;;;;;;;;;;;;15.46;100.00;99795.13;4990337;28;19922;-40
2023/03/13 08:19:46;;;;;;;;;;;;;;;15.81;100.00;99804.16;4990367;28;20387;-40
2023/03/13 08:22:11;;;;;;;;;;;;;;;15.75;100.00;99768.03;4999741;28;20404;-40
2023/03/13 08:24:36;;;;;;;;;;;;;;;15.43;100.00;99697.47;4991800;28;20877;-40
2023/03/13 08:27:01;;;;;;;;;;;;;;;15.53;100.00;99659.03;4988994;28;20449;-40
2023/03/13 08:29:27;;;;;;;;;;;;;;;15.43;100.00;99632.59;4988266;28;19925;-40
2023/03/13 08:31:52;;;;;;;;;;;;;;;15.25;100.00;99622.97;4987469;28;20336;-40
2023/03/13 08:34:17;;;;;;;;;;;;;;;15.20;100.00;99586.00;4992874;28;20360;-40
2023/03/13 08:36:43;;;;;;;;;;;;;;;15.05;100.00;99575.34;4987556;28;19921;-40
2023/03/13 08:39:15;;;;;;;;;;;;;;;15.57;100.00;99571.44;4988435;28;20362;-40
2023/03/13 08:41:40;;;;;;;;;;;;;;;15.15;100.00;99585.34;4988174;28;19925;-40
2023/03/13 08:44:06;;;;;;;;;;;;;;;15.77;100.00;99578.41;4987580;28;19921;-40
2023/03/13 08:46:32;;;;;;;;;;;;;;;15.91;100.00;99528.44;4989333;28;20304;-40
2023/03/13 08:48:57;;;;;;;;;;;;;;;16.14;100.00;99468.47;4991556;28;19994;-41
2023/03/13 08:51:24;;;;;;;;;;;;;;;15.41;100.00;99421.56;4987893;28;20037;-41
2023/03/13 08:53:49;;;;;;;;;;;;;;;15.74;100.00;99428.78;4989071;28;20083;-53
2023/03/13 08:56:15;;;;;;;;;;;;;;;15.32;100.00;99411.59;4988300;28;19938;-52
2023/03/13 08:58:40;;;;;;;;;;;;;;;15.17;100.00;99387.19;4988143;28;20558;-54
2023/03/13 09:01:06;;;;;;;;;;;;;;;15.71;100.00;99402.94;4985141;28;19929;-53
2023/03/13 09:03:32;;;;;;;;;;;;;;;16.43;100.00;99429.84;4987181;28;20012;-51
2023/03/13 09:05:57;;;;;;;;;;;;;;;16.00;100.00;99374.75;4989143;28;19914;-50
2023/03/13 09:08:23;;;;;;;;;;;;;;;15.87;100.00;99335.53;4988804;28;19921;-53
2023/03/13 09:10:53;;;;;;;;;;;;;;;15.83;100.00;99326.22;4988459;28;19925;-51
2023/03/13 09:13:19;;;;;;;;;;;;;;;15.81;100.00;99352.25;4992586;28;19917;-54
2023/03/13 09:15:44;;;;;;;;;;;;;;;15.48;100.00;99313.13;4992756;28;19933;-53
2023/03/13 09:18:10;;;;;;;;;;;;;;;15.77;100.00;99288.41;4991446;28;19921;-53
2023/03/13 09:20:35;;;;;;;;;;;;;;;16.14;100.00;99233.78;4990235;28;20003;-51
2023/03/13 09:23:00;;;;;;;;;;;;;;;15.94;100.00;99211.41;4990703;28;19921;-54
2023/03/13 09:25:25;;;;;;;;;;;;;;;15.82;100.00;99250.06;4990466;28;19923;-53
2023/03/13 09:27:51;;;;;;;;;;;;;;;15.52;100.00;99194.44;4994904;28;19917;-54
2023/03/13 09:30:16;;;;;;;;;;;;;;;15.65;100.00;99226.66;4991628;28;20199;-53
2023/03/13 09:32:41;;;;;;;;;;;;;;;15.92;100.00;99244.41;4993383;28;19953;-54
2023/03/13 09:35:07;;;;;;;;;;;;;;;15.93;100.00;99282.47;4992545;28;19917;-54
2023/03/13 09:37:32;;;;;;;;;;;;;;;16.05;100.00;99266.25;4991259;28;20168;-53
2023/03/13 09:39:58;;;;;;;;;;;;;;;15.61;100.00;99261.47;4992218;28;19921;-53
2023/03/13 09:42:28;;;;;;;;;;;;;;;15.03;100.00;99288.41;4989688;28;20401;-53
2023/03/13 09:45:20;;;;;;;;;;;;;;;15.27;100.00;99377.25;4987661;28;20128;-53
2023/03/13 09:47:46;;;;;;;;;;;;;;;15.61;100.00;99366.16;4991118;28;20709;-55
2023/03/13 09:50:13;;;;;;;;;;;;;;;15.64;100.00;99406.69;4989806;28;19921;-53
2023/03/13 09:52:39;;;;;;;;;;;;;;;15.48;100.00;99391.00;4991001;28;19936;-54
2023/03/13 09:55:11;;;;;;;;;;;;;;;15.63;100.00;99411.06;4992419;28;19993;-54
2023/03/13 09:57:41;;;;;;;;;;;;;;;15.91;100.00;99389.00;4989392;28;19921;-54
2023/03/13 10:00:29;;;;;;;;;;;;;;;15.98;100.00;99379.19;4989432;28;19922;-54
2023/03/13 10:03:06;;;;;;;;;;;;;;;16.57;100.00;99397.94;4989876;28;19921;-54
2023/03/13 10:05:31;;;;;;;;;;;;;;;16.64;100.00;99322.13;4991745;28;20267;-53
2023/03/13 10:08:09;;;;;;;;;;;;;;;16.60;100.00;99267.78;4990799;28;19927;-54
2023/03/13 10:10:38;;;;;;;;;;;;;;;16.23;100.00;99200.34;4990872;28;19925;-54
2023/03/13 10:13:09;;;;;;;;;;;;;;;16.65;100.00;99183.41;5005801;28;19922;-53
2023/03/13 10:15:37;;;;;;;;;;;;;;;16.13;100.00;99186.19;4990565;28;19925;-54
2023/03/13 10:18:10;;;;;;;;;;;;;;;17.03;100.00;99136.25;4994044;28;19948;-53
2023/03/13 10:20:35;;;;;;;;;;;;;;;16.76;100.00;99085.75;4988583;28;19925;-53
2023/03/13 10:23:02;;;;;;;;;;;;;;;17.03;100.00;99041.75;4989729;28;20423;-53
2023/03/13 10:25:32;;;;;;;;;;;;;;;16.45;100.00;98980.88;4989530;28;19921;-53
2023/03/13 10:27:57;;;;;;;;;;;;;;;17.56;100.00;99041.22;4992395;28;20020;-53
2023/03/13 10:30:23;;;;;;;;;;;;;;;16.61;100.00;98945.28;4990816;28;19917;-51
2023/03/13 10:32:48;;;;;;;;;;;;;;;17.19;100.00;98976.66;4991830;28;20396;-52
2023/03/13 10:35:21;;;;;;;;;;;;;;;16.34;100.00;98928.69;4992636;28;19924;-54
2023/03/13 10:37:46;;;;;;;;;;;;;;;17.13;100.00;98955.28;4991198;28;19976;-54
2023/03/13 10:40:12;;;;;;;;;;;;;;;17.62;100.00;98893.31;4991308;28;20525;-53
2023/03/13 10:42:41;;;;;;;;;;;;;;;17.29;100.00;98824.22;4986619;28;20088;-53
2023/03/13 10:45:13;;;;;;;;;;;;;;;18.77;100.00;98787.59;4988080;28;21318;-54
2023/03/13 10:47:38;;;;;;;;;;;;;;;18.66;100.00;98646.63;4987480;28;19925;-54
2023/03/13 10:50:04;;;;;;;;;;;;;;;17.95;100.00;98505.63;4991568;28;20424;-52
2023/03/13 10:52:32;;;;;;;;;;;;;;;18.55;100.00;98477.03;4991112;28;20414;-52
2023/03/13 10:55:08;;;;;;;;;;;;;;;18.91;100.00;98350.91;4991823;28;19944;-51
2023/03/13 10:57:34;;;;;;;;;;;;;;;17.92;100.00;98385.97;4990823;28;19921;-52
2023/03/13 11:00:19;;;;;;;;;;;;;;;18.32;100.00;98416.16;4988415;28;19933;-54
2023/03/13 11:02:44;;;;;;;;;;;;;;;18.85;100.00;98367.00;4993839;28;19918;-53
2023/03/13 11:05:29;;;;;;;;;;;;;;;19.00;100.00;98138.81;4994645;28;21880;-54
2023/03/13 11:07:54;;;;;;;;;;;;;;;18.92;100.00;98065.53;4992948;28;19928;-54
2023/03/13 11:10:28;;;;;;;;;;;;;;;19.10;100.00;97992.75;4994084;28;19920;-53
2023/03/13 11:12:54;;;;;;;;;;;;;;;19.76;100.00;97889.72;4993241;28;21058;-52
2023/03/13 11:15:24;;;;;;;;;;;;;;;19.81;100.00;97772.59;4991701;28;21039;-53
2023/03/13 11:17:51;;;;;;;;;;;;;;;18.46;100.00;97732.09;4993277;28;19925;-53
2023/03/13 11:20:43;;;;;;;;;;;;;;;19.20;100.00;97769.19;4992534;28;20283;-53
2023/03/13 11:23:26;;;;;;;;;;;;;;;19.62;100.00;97716.75;4993644;28;20055;-54
2023/03/13 11:25:52;;;;;;;;;;;;;;;18.63;100.00;97674.09;4995384;28;20012;-53
2023/03/13 11:28:36;;;;;;;;;;;;;;;18.96;100.00;97751.25;4994050;28;19932;-53
2023/03/13 11:31:01;;;;;;;;;;;;;;;18.57;100.00;97638.16;4992710;28;19921;-53
2023/03/13 11:33:32;;;;;;;;;;;;;;;18.96;100.00;97659.13;4991730;28;19921;-54
2023/03/13 11:35:57;;;;;;;;;;;;;;;19.26;100.00;97628.66;4993705;28;19920;-54
2023/03/13 11:38:34;;;;;;;;;;;;;;;18.83;100.00;97603.78;4993750;28;20953;-53
2023/03/13 11:41:02;;;;;;;;;;;;;;;18.85;100.00;97607.06;4992192;28;19932;-52
2023/03/13 11:43:46;;;;;;;;;;;;;;;18.64;100.00;97521.91;4992115;28;20894;-53
2023/03/13 11:46:14;;;;;;;;;;;;;;;19.15;100.00;97455.59;4999358;28;19928;-53
2023/03/13 11:48:39;;;;;;;;;;;;;;;18.44;100.00;97442.03;5006009;28;19921;-52
2023/03/13 11:51:12;;;;;;;;;;;;;;;19.59;100.00;97449.81;4989533;28;19986;-53
2023/03/13 11:53:38;;;;;;;;;;;;;;;19.92;100.00;97450.25;4990037;28;19921;-52
2023/03/13 11:56:09;;;;;;;;;;;;;;;19.89;100.00;97438.31;4992211;28;19955;-54
2023/03/13 11:58:53;;;;;;;;;;;;;;;19.91;100.00;97368.44;4992070;28;19917;-54
2023/03/13 12:01:19;;;;;;;;;;;;;;;19.24;100.00;97294.72;4990483;28;19929;-54
2023/03/13 12:03:55;;;;;;;;;;;;;;;20.39;100.00;97303.66;4993038;28;19925;-54
2023/03/13 12:06:31;;;;;;;;;;;;;;;19.77;100.00;97259.22;4991925;28;20522;-54
2023/03/13 12:09:02;;;;;;;;;;;;;;;19.23;100.00;97274.81;4991666;28;19918;-53
2023/03/13 12:11:32;;;;;;;;;;;;;;;18.80;100.00;97282.28;4992514;28;21589;-54
2023/03/13 12:13:58;;;;;;;;;;;;;;;19.08;100.00;97331.88;4991281;28;19957;-55
2023/03/13 12:16:33;;;;;;;;;;;;;;;19.42;100.00;97281.72;4992176;28;19928;-54
2023/03/13 12:18:58;;;;;;;;;;;;;;;19.68;100.00;97247.03;4991132;28;19917;-53
2023/03/13 12:21:36;;;;;;;;;;;;;;;19.48;100.00;97175.84;4991936;28;19995;-54
2023/03/13 12:24:18;;;;;;;;;;;;;;;19.85;100.00;97194.00;4990077;28;19967;-54
2023/03/13 12:26:44;;;;;;;;;;;;;;;19.94;100.00;97206.16;5007378;28;20440;-53
2023/03/13 12:29:29;;;;;;;;;;;;;;;20.56;100.00;97186.91;4991608;28;19924;-54
2023/03/13 12:31:59;;;;;;;;;;;;;;;19.42;100.00;97187.72;4988279;28;19928;-55
2023/03/13 12:34:43;;;;;;;;;;;;;;;19.94;100.00;97226.25;4991710;28;20040;-54